sensor_id;sensor_type;location;lat;lon;timestamp;pressure;altitude;pressure_sealevel;temperature;humidity
62458;BME280;48509;52.122;5.250;2023-08-17T00:00:21;102086.0;;;19.87;87.93
62458;BME280;48509;52.122;5.250;2023-08-17T00:01:57;102087.0;;;19.86;88.26
62458;BME280;48509;52.122;5.250;2023-08-17T00:05:10;102087.0;;;19.86;87.91
62458;BME280;48509;52.122;5.250;2023-08-17T00:06:47;102089.0;;;19.93;87.05
62458;BME280;48509;52.122;5.250;2023-08-17T00:08:23;102084.0;;;19.91;87.17
62458;BME280;48509;52.122;5.250;2023-08-17T00:09:59;102084.0;;;19.87;88.48
62458;BME280;48509;52.122;5.250;2023-08-17T00:13:11;102086.0;;;19.96;87.28
62458;BME280;48509;52.122;5.250;2023-08-17T00:14:47;102085.0;;;19.95;86.95
62458;BME280;48509;52.122;5.250;2023-08-17T00:16:23;102086.0;;;19.88;87.28
62458;BME280;48509;52.122;5.250;2023-08-17T00:19:36;102089.0;;;19.97;86.81
62458;BME280;48509;52.122;5.250;2023-08-17T00:21:12;102090.0;;;19.75;88.93
62458;BME280;48509;52.122;5.250;2023-08-17T00:22:49;102086.0;;;19.71;88.69
62458;BME280;48509;52.122;5.250;2023-08-17T00:26:01;102085.0;;;19.77;88.92
62458;BME280;48509;52.122;5.250;2023-08-17T00:27:37;102085.0;;;19.75;88.47
62458;BME280;48509;52.122;5.250;2023-08-17T00:29:13;102084.0;;;19.77;88.9
62458;BME280;48509;52.122;5.250;2023-08-17T00:32:27;102075.0;;;19.7;88.66
62458;BME280;48509;52.122;5.250;2023-08-17T00:34:03;102076.0;;;19.71;88.95
62458;BME280;48509;52.122;5.250;2023-08-17T00:35:39;102072.0;;;19.71;88.53
62458;BME280;48509;52.122;5.250;2023-08-17T00:37:15;102067.0;;;19.52;88.7
62458;BME280;48509;52.122;5.250;2023-08-17T00:40:27;102067.0;;;19.61;88.19
62458;BME280;48509;52.122;5.250;2023-08-17T00:42:04;102068.0;;;19.57;88.23
62458;BME280;48509;52.122;5.250;2023-08-17T00:43:40;102068.0;;;19.53;89.62
62458;BME280;48509;52.122;5.250;2023-08-17T00:46:54;102069.0;;;19.57;89.84
62458;BME280;48509;52.122;5.250;2023-08-17T00:48:31;102073.0;;;19.55;89.37
62458;BME280;48509;52.122;5.250;2023-08-17T00:50:09;102072.0;;;19.5;89.65
62458;BME280;48509;52.122;5.250;2023-08-17T00:53:23;102072.0;;;19.5;89.67
62458;BME280;48509;52.122;5.250;2023-08-17T00:55:02;102074.0;;;19.54;89.8
62458;BME280;48509;52.122;5.250;2023-08-17T00:56:39;102074.0;;;19.5;89.97
62458;BME280;48509;52.122;5.250;2023-08-17T00:58:16;102073.0;;;19.45;89.99
62458;BME280;48509;52.122;5.250;2023-08-17T01:01:29;102073.0;;;19.52;89.8
62458;BME280;48509;52.122;5.250;2023-08-17T01:03:06;102072.0;;;19.34;90.56
62458;BME280;48509;52.122;5.250;2023-08-17T01:04:42;102064.0;;;19.34;90.89
62458;BME280;48509;52.122;5.250;2023-08-17T01:07:55;102071.0;;;19.3;90.5
62458;BME280;48509;52.122;5.250;2023-08-17T01:09:31;102068.0;;;19.12;91.18
62458;BME280;48509;52.122;5.250;2023-08-17T01:11:13;102072.0;;;19.22;90.75
62458;BME280;48509;52.122;5.250;2023-08-17T01:13:02;102067.0;;;19.27;90.47
62458;BME280;48509;52.122;5.250;2023-08-17T01:16:33;102064.0;;;19.11;91.46
62458;BME280;48509;52.122;5.250;2023-08-17T01:18:17;102066.0;;;19.09;91.37
62458;BME280;48509;52.122;5.250;2023-08-17T01:19:57;102065.0;;;19.06;91.98
62458;BME280;48509;52.122;5.250;2023-08-17T01:21:37;102065.0;;;19.02;92.03
62458;BME280;48509;52.122;5.250;2023-08-17T01:23:17;102068.0;;;18.91;93.1
62458;BME280;48509;52.122;5.250;2023-08-17T01:26:30;102069.0;;;18.97;92.33
62458;BME280;48509;52.122;5.250;2023-08-17T01:28:07;102069.0;;;18.93;93.03
62458;BME280;48509;52.122;5.250;2023-08-17T01:29:43;102065.0;;;19.02;92.05
62458;BME280;48509;52.122;5.250;2023-08-17T01:33:07;102065.0;;;18.96;92.29
62458;BME280;48509;52.122;5.250;2023-08-17T01:34:47;102064.0;;;18.98;91.45
62458;BME280;48509;52.122;5.250;2023-08-17T01:36:30;102058.0;;;19.06;91.7
62458;BME280;48509;52.122;5.250;2023-08-17T01:41:31;102056.0;;;19.09;90.4
62458;BME280;48509;52.122;5.250;2023-08-17T01:43:09;102055.0;;;19.02;90.84
62458;BME280;48509;52.122;5.250;2023-08-17T01:44:47;102060.0;;;18.96;91.35
62458;BME280;48509;52.122;5.250;2023-08-17T01:46:29;102055.0;;;19.05;90.54
62458;BME280;48509;52.122;5.250;2023-08-17T01:49:43;102053.0;;;19.03;91.12
62458;BME280;48509;52.122;5.250;2023-08-17T01:51:19;102050.0;;;19.09;91.43
62458;BME280;48509;52.122;5.250;2023-08-17T01:52:55;102049.0;;;19.03;91.54
62458;BME280;48509;52.122;5.250;2023-08-17T01:56:07;102052.0;;;19.03;90.95
62458;BME280;48509;52.122;5.250;2023-08-17T01:57:43;102052.0;;;18.95;92.24
62458;BME280;48509;52.122;5.250;2023-08-17T01:59:20;102051.0;;;19.09;91.74
62458;BME280;48509;52.122;5.250;2023-08-17T02:00:56;102047.0;;;19.06;91.2
62458;BME280;48509;52.122;5.250;2023-08-17T02:04:08;102053.0;;;19.03;91.32
62458;BME280;48509;52.122;5.250;2023-08-17T02:05:44;102052.0;;;18.89;93.69
62458;BME280;48509;52.122;5.250;2023-08-17T02:07:21;102058.0;;;19.0;91.82
62458;BME280;48509;52.122;5.250;2023-08-17T02:10:34;102060.0;;;18.91;92.44
62458;BME280;48509;52.122;5.250;2023-08-17T02:12:11;102058.0;;;18.89;92.36
62458;BME280;48509;52.122;5.250;2023-08-17T02:13:47;102056.0;;;18.84;93.47
62458;BME280;48509;52.122;5.250;2023-08-17T02:16:59;102056.0;;;18.91;92.63
62458;BME280;48509;52.122;5.250;2023-08-17T02:18:35;102053.0;;;18.98;92.88
62458;BME280;48509;52.122;5.250;2023-08-17T02:20:12;102051.0;;;18.89;93.08
62458;BME280;48509;52.122;5.250;2023-08-17T02:21:48;102052.0;;;18.81;93.79
62458;BME280;48509;52.122;5.250;2023-08-17T02:25:01;102053.0;;;18.75;93.97
62458;BME280;48509;52.122;5.250;2023-08-17T02:26:37;102053.0;;;18.82;93.9
62458;BME280;48509;52.122;5.250;2023-08-17T02:28:13;102051.0;;;18.81;93.48
62458;BME280;48509;52.122;5.250;2023-08-17T02:31:25;102052.0;;;18.8;93.47
62458;BME280;48509;52.122;5.250;2023-08-17T02:33:01;102055.0;;;18.62;94.67
62458;BME280;48509;52.122;5.250;2023-08-17T02:34:37;102055.0;;;18.59;95.53
62458;BME280;48509;52.122;5.250;2023-08-17T02:37:50;102063.0;;;18.68;95.97
62458;BME280;48509;52.122;5.250;2023-08-17T02:39:27;102056.0;;;18.75;94.7
62458;BME280;48509;52.122;5.250;2023-08-17T02:41:03;102050.0;;;18.84;93.69
62458;BME280;48509;52.122;5.250;2023-08-17T02:44:15;102049.0;;;18.89;93.0
62458;BME280;48509;52.122;5.250;2023-08-17T02:45:51;102044.0;;;19.0;92.75
62458;BME280;48509;52.122;5.250;2023-08-17T02:47:27;102040.0;;;18.97;92.96
62458;BME280;48509;52.122;5.250;2023-08-17T02:49:04;102038.0;;;19.0;93.4
62458;BME280;48509;52.122;5.250;2023-08-17T02:52:16;102033.0;;;18.87;93.24
62458;BME280;48509;52.122;5.250;2023-08-17T02:53:52;102033.0;;;18.93;92.89
62458;BME280;48509;52.122;5.250;2023-08-17T02:55:28;102033.0;;;18.93;92.63
62458;BME280;48509;52.122;5.250;2023-08-17T02:58:40;102034.0;;;19.0;92.5
62458;BME280;48509;52.122;5.250;2023-08-17T03:00:16;102037.0;;;19.05;91.74
62458;BME280;48509;52.122;5.250;2023-08-17T03:01:53;102034.0;;;19.02;92.18
62458;BME280;48509;52.122;5.250;2023-08-17T03:05:06;102032.0;;;18.93;92.67
62458;BME280;48509;52.122;5.250;2023-08-17T03:06:43;102040.0;;;18.89;92.91
62458;BME280;48509;52.122;5.250;2023-08-17T03:08:19;102034.0;;;18.95;92.31
62458;BME280;48509;52.122;5.250;2023-08-17T03:09:55;102035.0;;;19.02;92.47
62458;BME280;48509;52.122;5.250;2023-08-17T03:13:07;102032.0;;;18.87;94.37
62458;BME280;48509;52.122;5.250;2023-08-17T03:14:43;102030.0;;;18.84;93.57
62458;BME280;48509;52.122;5.250;2023-08-17T03:16:19;102033.0;;;18.78;94.23
62458;BME280;48509;52.122;5.250;2023-08-17T03:19:32;102039.0;;;18.84;93.75
62458;BME280;48509;52.122;5.250;2023-08-17T03:21:08;102032.0;;;18.77;93.88
62458;BME280;48509;52.122;5.250;2023-08-17T03:22:44;102033.0;;;18.68;94.98
62458;BME280;48509;52.122;5.250;2023-08-17T03:25:56;102028.0;;;18.77;94.64
62458;BME280;48509;52.122;5.250;2023-08-17T03:27:32;102030.0;;;18.8;93.85
62458;BME280;48509;52.122;5.250;2023-08-17T03:29:08;102030.0;;;18.88;93.36
62458;BME280;48509;52.122;5.250;2023-08-17T03:32:21;102028.0;;;18.84;93.59
62458;BME280;48509;52.122;5.250;2023-08-17T03:33:57;102030.0;;;18.75;94.31
62458;BME280;48509;52.122;5.250;2023-08-17T03:35:33;102030.0;;;18.82;93.9
62458;BME280;48509;52.122;5.250;2023-08-17T03:37:09;102031.0;;;18.96;93.08
62458;BME280;48509;52.122;5.250;2023-08-17T03:40:21;102027.0;;;18.86;93.82
62458;BME280;48509;52.122;5.250;2023-08-17T03:41:57;102026.0;;;18.84;93.23
62458;BME280;48509;52.122;5.250;2023-08-17T03:43:33;102023.0;;;18.82;93.5
62458;BME280;48509;52.122;5.250;2023-08-17T03:46:45;102021.0;;;18.7;94.29
62458;BME280;48509;52.122;5.250;2023-08-17T03:48:22;102026.0;;;18.66;94.34
62458;BME280;48509;52.122;5.250;2023-08-17T03:49:58;102025.0;;;18.57;94.85
62458;BME280;48509;52.122;5.250;2023-08-17T03:53:10;102026.0;;;18.61;94.28
62458;BME280;48509;52.122;5.250;2023-08-17T03:54:46;102022.0;;;18.66;94.41
62458;BME280;48509;52.122;5.250;2023-08-17T03:56:22;102027.0;;;18.66;93.64
62458;BME280;48509;52.122;5.250;2023-08-17T03:59:35;102030.0;;;18.57;95.13
62458;BME280;48509;52.122;5.250;2023-08-17T04:01:11;102030.0;;;18.5;95.75
62458;BME280;48509;52.122;5.250;2023-08-17T04:02:47;102030.0;;;18.48;96.27
62458;BME280;48509;52.122;5.250;2023-08-17T04:04:23;102033.0;;;18.54;95.08
62458;BME280;48509;52.122;5.250;2023-08-17T04:07:40;102032.0;;;18.56;95.25
62458;BME280;48509;52.122;5.250;2023-08-17T04:09:16;102033.0;;;18.52;95.37
62458;BME280;48509;52.122;5.250;2023-08-17T04:10:52;102039.0;;;18.52;95.07
62458;BME280;48509;52.122;5.250;2023-08-17T04:14:04;102039.0;;;18.7;93.68
62458;BME280;48509;52.122;5.250;2023-08-17T04:15:40;102039.0;;;18.56;95.07
62458;BME280;48509;52.122;5.250;2023-08-17T04:17:16;102036.0;;;18.57;95.52
62458;BME280;48509;52.122;5.250;2023-08-17T04:20:28;102039.0;;;18.52;95.83
62458;BME280;48509;52.122;5.250;2023-08-17T04:22:04;102035.0;;;18.39;96.39
62458;BME280;48509;52.122;5.250;2023-08-17T04:23:41;102037.0;;;18.46;95.56
62458;BME280;48509;52.122;5.250;2023-08-17T04:25:17;102037.0;;;18.5;94.86
62458;BME280;48509;52.122;5.250;2023-08-17T04:28:29;102037.0;;;18.62;94.17
62458;BME280;48509;52.122;5.250;2023-08-17T04:30:06;102038.0;;;18.68;93.51
62458;BME280;48509;52.122;5.250;2023-08-17T04:31:44;102038.0;;;18.72;93.22
62458;BME280;48509;52.122;5.250;2023-08-17T04:34:56;102032.0;;;18.7;93.59
62458;BME280;48509;52.122;5.250;2023-08-17T04:36:33;102027.0;;;18.77;92.43
62458;BME280;48509;52.122;5.250;2023-08-17T04:38:09;102025.0;;;18.73;93.21
62458;BME280;48509;52.122;5.250;2023-08-17T04:41:21;102021.0;;;18.63;93.53
62458;BME280;48509;52.122;5.250;2023-08-17T04:42:57;102022.0;;;18.73;92.86
62458;BME280;48509;52.122;5.250;2023-08-17T04:44:33;102021.0;;;18.71;92.8
62458;BME280;48509;52.122;5.250;2023-08-17T04:46:09;102025.0;;;18.61;92.83
62458;BME280;48509;52.122;5.250;2023-08-17T04:49:22;102020.0;;;18.62;93.43
62458;BME280;48509;52.122;5.250;2023-08-17T04:50:58;102018.0;;;18.56;93.83
62458;BME280;48509;52.122;5.250;2023-08-17T04:52:34;102019.0;;;18.68;93.61
62458;BME280;48509;52.122;5.250;2023-08-17T04:55:46;102015.0;;;18.62;94.16
62458;BME280;48509;52.122;5.250;2023-08-17T04:57:22;102022.0;;;18.64;94.73
62458;BME280;48509;52.122;5.250;2023-08-17T04:58:58;102025.0;;;18.52;94.67
62458;BME280;48509;52.122;5.250;2023-08-17T05:02:11;102024.0;;;18.47;95.85
62458;BME280;48509;52.122;5.250;2023-08-17T05:03:47;102017.0;;;18.43;94.9
62458;BME280;48509;52.122;5.250;2023-08-17T05:05:23;102013.0;;;18.52;94.65
62458;BME280;48509;52.122;5.250;2023-08-17T05:08:36;102015.0;;;18.5;94.43
62458;BME280;48509;52.122;5.250;2023-08-17T05:10:13;102012.0;;;18.57;94.27
62458;BME280;48509;52.122;5.250;2023-08-17T05:13:25;102014.0;;;18.55;95.18
62458;BME280;48509;52.122;5.250;2023-08-17T05:16:37;102009.0;;;18.68;93.68
62458;BME280;48509;52.122;5.250;2023-08-17T05:18:13;102009.0;;;18.7;94.89
62458;BME280;48509;52.122;5.250;2023-08-17T05:19:49;102011.0;;;18.7;93.88
62458;BME280;48509;52.122;5.250;2023-08-17T05:23:02;102005.0;;;18.68;94.22
62458;BME280;48509;52.122;5.250;2023-08-17T05:24:39;102006.0;;;18.72;93.35
62458;BME280;48509;52.122;5.250;2023-08-17T05:26:15;102010.0;;;18.68;93.41
62458;BME280;48509;52.122;5.250;2023-08-17T05:29:27;102003.0;;;18.61;94.39
62458;BME280;48509;52.122;5.250;2023-08-17T05:31:05;102006.0;;;18.68;93.97
62458;BME280;48509;52.122;5.250;2023-08-17T05:32:41;102009.0;;;18.7;94.21
62458;BME280;48509;52.122;5.250;2023-08-17T05:34:17;102010.0;;;18.63;94.9
62458;BME280;48509;52.122;5.250;2023-08-17T05:37:30;102008.0;;;18.7;94.46
62458;BME280;48509;52.122;5.250;2023-08-17T05:39:06;102005.0;;;18.77;94.47
62458;BME280;48509;52.122;5.250;2023-08-17T05:40:42;102014.0;;;18.82;94.15
62458;BME280;48509;52.122;5.250;2023-08-17T05:43:55;102016.0;;;18.82;93.59
62458;BME280;48509;52.122;5.250;2023-08-17T05:45:31;102014.0;;;18.82;94.25
62458;BME280;48509;52.122;5.250;2023-08-17T05:47:07;102021.0;;;18.87;94.2
62458;BME280;48509;52.122;5.250;2023-08-17T05:50:20;102021.0;;;18.84;95.14
62458;BME280;48509;52.122;5.250;2023-08-17T05:51:56;102017.0;;;18.91;94.12
62458;BME280;48509;52.122;5.250;2023-08-17T05:53:32;102019.0;;;18.84;93.98
62458;BME280;48509;52.122;5.250;2023-08-17T05:56:44;102017.0;;;18.97;92.95
62458;BME280;48509;52.122;5.250;2023-08-17T05:58:20;102024.0;;;18.95;93.36
62458;BME280;48509;52.122;5.250;2023-08-17T05:59:56;102020.0;;;18.91;94.64
62458;BME280;48509;52.122;5.250;2023-08-17T06:01:32;102025.0;;;19.02;93.19
62458;BME280;48509;52.122;5.250;2023-08-17T06:04:47;102025.0;;;19.09;92.81
62458;BME280;48509;52.122;5.250;2023-08-17T06:06:23;102027.0;;;19.11;91.71
62458;BME280;48509;52.122;5.250;2023-08-17T06:07:59;102030.0;;;19.16;91.92
62458;BME280;48509;52.122;5.250;2023-08-17T06:11:11;102036.0;;;19.11;91.54
62458;BME280;48509;52.122;5.250;2023-08-17T06:12:47;102038.0;;;19.18;92.24
62458;BME280;48509;52.122;5.250;2023-08-17T06:14:23;102035.0;;;19.16;92.99
62458;BME280;48509;52.122;5.250;2023-08-17T06:17:36;102039.0;;;19.28;91.58
62458;BME280;48509;52.122;5.250;2023-08-17T06:19:12;102042.0;;;19.34;92.9
62458;BME280;48509;52.122;5.250;2023-08-17T06:20:48;102041.0;;;19.38;93.96
62458;BME280;48509;52.122;5.250;2023-08-17T06:22:24;102043.0;;;19.5;91.87
62458;BME280;48509;52.122;5.250;2023-08-17T06:25:36;102043.0;;;19.41;92.39
62458;BME280;48509;52.122;5.250;2023-08-17T06:27:14;102047.0;;;19.53;90.5
62458;BME280;48509;52.122;5.250;2023-08-17T06:28:50;102042.0;;;19.56;92.2
62458;BME280;48509;52.122;5.250;2023-08-17T06:32:02;102044.0;;;19.54;90.47
62458;BME280;48509;52.122;5.250;2023-08-17T06:33:38;102045.0;;;19.48;91.81
62458;BME280;48509;52.122;5.250;2023-08-17T06:35:14;102041.0;;;19.52;91.5
62458;BME280;48509;52.122;5.250;2023-08-17T06:38:35;102044.0;;;19.5;92.62
62458;BME280;48509;52.122;5.250;2023-08-17T06:40:11;102047.0;;;19.5;91.05
62458;BME280;48509;52.122;5.250;2023-08-17T06:41:48;102047.0;;;19.5;89.66
62458;BME280;48509;52.122;5.250;2023-08-17T06:43:24;102047.0;;;19.48;90.27
62458;BME280;48509;52.122;5.250;2023-08-17T06:46:36;102049.0;;;19.5;91.05
62458;BME280;48509;52.122;5.250;2023-08-17T06:48:12;102053.0;;;19.61;91.21
62458;BME280;48509;52.122;5.250;2023-08-17T06:49:48;102055.0;;;19.68;90.49
62458;BME280;48509;52.122;5.250;2023-08-17T06:53:01;102051.0;;;19.68;91.9
62458;BME280;48509;52.122;5.250;2023-08-17T06:54:38;102050.0;;;19.7;91.61
62458;BME280;48509;52.122;5.250;2023-08-17T06:56:14;102051.0;;;19.64;92.17
62458;BME280;48509;52.122;5.250;2023-08-17T06:59:26;102053.0;;;19.75;89.42
62458;BME280;48509;52.122;5.250;2023-08-17T07:01:02;102057.0;;;19.77;90.63
62458;BME280;48509;52.122;5.250;2023-08-17T07:02:38;102064.0;;;19.81;90.29
62458;BME280;48509;52.122;5.250;2023-08-17T07:04:14;102059.0;;;19.75;88.83
62458;BME280;48509;52.122;5.250;2023-08-17T07:07:26;102055.0;;;19.68;90.96
62458;BME280;48509;52.122;5.250;2023-08-17T07:09:03;102059.0;;;19.68;89.75
62458;BME280;48509;52.122;5.250;2023-08-17T07:10:39;102056.0;;;19.61;91.34
62458;BME280;48509;52.122;5.250;2023-08-17T07:13:51;102053.0;;;19.63;91.2
62458;BME280;48509;52.122;5.250;2023-08-17T07:15:28;102057.0;;;19.66;91.56
62458;BME280;48509;52.122;5.250;2023-08-17T07:17:04;102056.0;;;19.7;91.59
62458;BME280;48509;52.122;5.250;2023-08-17T07:20:16;102061.0;;;19.81;89.84
62458;BME280;48509;52.122;5.250;2023-08-17T07:21:52;102063.0;;;19.86;91.03
62458;BME280;48509;52.122;5.250;2023-08-17T07:23:28;102059.0;;;20.02;91.18
62458;BME280;48509;52.122;5.250;2023-08-17T07:26:42;102059.0;;;20.0;89.61
62458;BME280;48509;52.122;5.250;2023-08-17T07:28:18;102068.0;;;20.02;90.28
62458;BME280;48509;52.122;5.250;2023-08-17T07:29:54;102056.0;;;20.07;90.64
62458;BME280;48509;52.122;5.250;2023-08-17T07:31:30;102057.0;;;20.07;88.95
62458;BME280;48509;52.122;5.250;2023-08-17T07:34:42;102056.0;;;20.0;90.42
62458;BME280;48509;52.122;5.250;2023-08-17T07:36:18;102055.0;;;20.13;90.44
62458;BME280;48509;52.122;5.250;2023-08-17T07:37:54;102055.0;;;19.95;90.52
62458;BME280;48509;52.122;5.250;2023-08-17T07:41:07;102056.0;;;19.98;90.13
62458;BME280;48509;52.122;5.250;2023-08-17T07:42:43;102062.0;;;19.88;89.99
62458;BME280;48509;52.122;5.250;2023-08-17T07:44:21;102055.0;;;19.89;89.79
62458;BME280;48509;52.122;5.250;2023-08-17T07:47:33;102052.0;;;20.0;91.09
62458;BME280;48509;52.122;5.250;2023-08-17T07:49:10;102057.0;;;20.04;90.62
62458;BME280;48509;52.122;5.250;2023-08-17T07:50:48;102059.0;;;20.0;92.1
62458;BME280;48509;52.122;5.250;2023-08-17T07:52:25;102064.0;;;20.14;90.92
62458;BME280;48509;52.122;5.250;2023-08-17T07:55:37;102056.0;;;20.25;91.58
62458;BME280;48509;52.122;5.250;2023-08-17T07:57:13;102059.0;;;20.27;91.05
62458;BME280;48509;52.122;5.250;2023-08-17T07:58:49;102056.0;;;20.3;90.27
62458;BME280;48509;52.122;5.250;2023-08-17T08:02:02;102058.0;;;20.27;88.54
62458;BME280;48509;52.122;5.250;2023-08-17T08:03:38;102056.0;;;20.28;89.4
62458;BME280;48509;52.122;5.250;2023-08-17T08:05:14;102055.0;;;20.28;90.11
62458;BME280;48509;52.122;5.250;2023-08-17T08:08:26;102056.0;;;20.34;87.59
62458;BME280;48509;52.122;5.250;2023-08-17T08:10:02;102058.0;;;20.49;89.28
62458;BME280;48509;52.122;5.250;2023-08-17T08:11:39;102059.0;;;20.63;88.75
62458;BME280;48509;52.122;5.250;2023-08-17T08:13:15;102062.0;;;20.6;87.53
62458;BME280;48509;52.122;5.250;2023-08-17T08:16:28;102060.0;;;20.5;87.05
62458;BME280;48509;52.122;5.250;2023-08-17T08:18:04;102051.0;;;20.7;88.58
62458;BME280;48509;52.122;5.250;2023-08-17T08:19:40;102051.0;;;20.76;86.68
62458;BME280;48509;52.122;5.250;2023-08-17T08:22:52;102045.0;;;20.89;88.69
62458;BME280;48509;52.122;5.250;2023-08-17T08:24:28;102046.0;;;21.01;89.14
62458;BME280;48509;52.122;5.250;2023-08-17T08:26:04;102050.0;;;21.05;87.92
62458;BME280;48509;52.122;5.250;2023-08-17T08:29:17;102051.0;;;21.18;87.52
62458;BME280;48509;52.122;5.250;2023-08-17T08:30:53;102048.0;;;21.17;87.72
62458;BME280;48509;52.122;5.250;2023-08-17T08:32:29;102056.0;;;21.34;86.84
62458;BME280;48509;52.122;5.250;2023-08-17T08:35:41;102050.0;;;21.29;85.47
62458;BME280;48509;52.122;5.250;2023-08-17T08:37:17;102049.0;;;21.39;87.95
62458;BME280;48509;52.122;5.250;2023-08-17T08:38:53;102052.0;;;21.28;83.57
62458;BME280;48509;52.122;5.250;2023-08-17T08:40:30;102051.0;;;21.4;83.5
62458;BME280;48509;52.122;5.250;2023-08-17T08:43:42;102043.0;;;21.45;85.62
62458;BME280;48509;52.122;5.250;2023-08-17T08:45:18;102040.0;;;21.43;83.87
62458;BME280;48509;52.122;5.250;2023-08-17T08:46:56;102043.0;;;21.62;82.74
62458;BME280;48509;52.122;5.250;2023-08-17T08:50:16;102037.0;;;21.72;82.79
62458;BME280;48509;52.122;5.250;2023-08-17T08:51:54;102034.0;;;21.7;83.29
62458;BME280;48509;52.122;5.250;2023-08-17T08:53:37;102041.0;;;21.81;82.83
62458;BME280;48509;52.122;5.250;2023-08-17T08:55:17;102033.0;;;21.65;83.56
62458;BME280;48509;52.122;5.250;2023-08-17T08:58:38;102037.0;;;21.74;83.56
62458;BME280;48509;52.122;5.250;2023-08-17T09:00:16;102033.0;;;21.68;83.22
62458;BME280;48509;52.122;5.250;2023-08-17T09:01:54;102032.0;;;21.65;84.93
62458;BME280;48509;52.122;5.250;2023-08-17T09:06:47;102030.0;;;21.59;83.21
62458;BME280;48509;52.122;5.250;2023-08-17T09:08:27;102028.0;;;21.59;83.67
62458;BME280;48509;52.122;5.250;2023-08-17T09:10:05;102027.0;;;21.65;83.57
62458;BME280;48509;52.122;5.250;2023-08-17T09:13:18;102024.0;;;21.64;83.5
62458;BME280;48509;52.122;5.250;2023-08-17T09:14:54;102024.0;;;21.67;83.12
62458;BME280;48509;52.122;5.250;2023-08-17T09:16:30;102026.0;;;21.72;82.77
62458;BME280;48509;52.122;5.250;2023-08-17T09:18:06;102030.0;;;21.9;83.73
62458;BME280;48509;52.122;5.250;2023-08-17T09:21:24;102032.0;;;21.84;80.25
62458;BME280;48509;52.122;5.250;2023-08-17T09:23:03;102031.0;;;21.87;80.61
62458;BME280;48509;52.122;5.250;2023-08-17T09:24:39;102025.0;;;21.71;81.86
62458;BME280;48509;52.122;5.250;2023-08-17T09:27:51;102025.0;;;21.73;82.56
62458;BME280;48509;52.122;5.250;2023-08-17T09:29:28;102020.0;;;21.67;82.46
62458;BME280;48509;52.122;5.250;2023-08-17T09:31:04;102019.0;;;21.81;81.37
62458;BME280;48509;52.122;5.250;2023-08-17T09:34:18;102019.0;;;21.89;81.24
62458;BME280;48509;52.122;5.250;2023-08-17T09:35:56;102010.0;;;21.92;82.29
62458;BME280;48509;52.122;5.250;2023-08-17T09:37:33;102012.0;;;21.89;80.72
62458;BME280;48509;52.122;5.250;2023-08-17T09:39:10;102008.0;;;21.99;80.61
62458;BME280;48509;52.122;5.250;2023-08-17T09:42:24;102012.0;;;22.12;81.05
62458;BME280;48509;52.122;5.250;2023-08-17T09:44:00;102011.0;;;22.18;81.27
62458;BME280;48509;52.122;5.250;2023-08-17T09:45:37;102008.0;;;22.25;81.84
62458;BME280;48509;52.122;5.250;2023-08-17T09:48:52;102007.0;;;22.28;80.33
62458;BME280;48509;52.122;5.250;2023-08-17T09:50:29;102001.0;;;22.34;82.43
62458;BME280;48509;52.122;5.250;2023-08-17T09:52:05;102003.0;;;22.3;78.86
62458;BME280;48509;52.122;5.250;2023-08-17T09:53:42;102005.0;;;22.34;78.55
62458;BME280;48509;52.122;5.250;2023-08-17T09:56:57;102001.0;;;22.45;79.94
62458;BME280;48509;52.122;5.250;2023-08-17T10:00:11;101998.0;;;22.14;81.2
62458;BME280;48509;52.122;5.250;2023-08-17T10:03:27;101995.0;;;22.09;81.19
62458;BME280;48509;52.122;5.250;2023-08-17T10:05:05;101985.0;;;22.33;79.95
62458;BME280;48509;52.122;5.250;2023-08-17T10:06:48;101984.0;;;22.5;81.86
62458;BME280;48509;52.122;5.250;2023-08-17T10:08:29;101980.0;;;22.35;82.49
62458;BME280;48509;52.122;5.250;2023-08-17T10:11:45;101980.0;;;22.5;80.16
62458;BME280;48509;52.122;5.250;2023-08-17T10:13:30;101980.0;;;22.48;81.16
62458;BME280;48509;52.122;5.250;2023-08-17T10:15:11;101986.0;;;22.46;79.87
62458;BME280;48509;52.122;5.250;2023-08-17T10:16:51;101982.0;;;22.49;80.2
62458;BME280;48509;52.122;5.250;2023-08-17T10:20:18;101984.0;;;22.62;78.05
62458;BME280;48509;52.122;5.250;2023-08-17T10:22:02;101984.0;;;22.69;79.69
62458;BME280;48509;52.122;5.250;2023-08-17T10:23:42;101987.0;;;22.64;79.66
62458;BME280;48509;52.122;5.250;2023-08-17T10:25:21;101985.0;;;22.48;79.19
62458;BME280;48509;52.122;5.250;2023-08-17T10:28:37;101985.0;;;22.52;79.55
62458;BME280;48509;52.122;5.250;2023-08-17T10:30:14;101984.0;;;22.5;80.84
62458;BME280;48509;52.122;5.250;2023-08-17T10:31:50;101985.0;;;22.43;80.16
62458;BME280;48509;52.122;5.250;2023-08-17T10:33:28;101985.0;;;22.53;81.24
62458;BME280;48509;52.122;5.250;2023-08-17T10:38:20;101985.0;;;22.34;81.11
62458;BME280;48509;52.122;5.250;2023-08-17T10:39:56;101986.0;;;22.42;80.55
62458;BME280;48509;52.122;5.250;2023-08-17T10:43:32;101989.0;;;22.41;78.89
62458;BME280;48509;52.122;5.250;2023-08-17T10:45:26;101982.0;;;22.61;80.36
62458;BME280;48509;52.122;5.250;2023-08-17T10:47:19;101988.0;;;22.53;78.05
62458;BME280;48509;52.122;5.250;2023-08-17T10:49:01;101985.0;;;22.56;80.22
62458;BME280;48509;52.122;5.250;2023-08-17T10:50:39;101987.0;;;22.59;80.27
62458;BME280;48509;52.122;5.250;2023-08-17T10:52:25;101985.0;;;22.71;79.94
62458;BME280;48509;52.122;5.250;2023-08-17T10:55:41;101988.0;;;22.83;79.52
62458;BME280;48509;52.122;5.250;2023-08-17T10:57:24;101982.0;;;22.79;79.24
62458;BME280;48509;52.122;5.250;2023-08-17T10:59:24;101981.0;;;22.93;79.19
62458;BME280;48509;52.122;5.250;2023-08-17T11:01:01;101981.0;;;22.95;78.8
62458;BME280;48509;52.122;5.250;2023-08-17T11:04:16;101984.0;;;22.81;78.09
62458;BME280;48509;52.122;5.250;2023-08-17T11:05:54;101980.0;;;22.7;78.86
62458;BME280;48509;52.122;5.250;2023-08-17T11:07:42;101982.0;;;22.55;77.84
62458;BME280;48509;52.122;5.250;2023-08-17T11:09:21;101980.0;;;22.54;80.28
62458;BME280;48509;52.122;5.250;2023-08-17T11:12:41;101980.0;;;22.49;81.08
62458;BME280;48509;52.122;5.250;2023-08-17T11:14:17;101984.0;;;22.44;79.58
62458;BME280;48509;52.122;5.250;2023-08-17T11:15:53;101985.0;;;22.3;82.06